createdAt,value
2023-04-17T00:00:47.798Z,5.78
2023-04-17T00:03:49.901Z,4.78
2023-04-17T00:06:52.010Z,4.40
2023-04-17T00:09:53.977Z,4.78
2023-04-17T00:12:56.047Z,5.97
2023-04-17T00:15:58.205Z,4.35
2023-04-17T00:19:00.161Z,4.93
2023-04-17T00:22:02.160Z,5.68
2023-04-17T00:25:04.791Z,4.38
2023-04-17T00:28:06.884Z,5.65
2023-04-17T00:31:09.128Z,4.72
2023-04-17T00:34:11.164Z,4.85
2023-04-17T00:37:13.155Z,4.82
2023-04-17T00:40:15.276Z,3.63
2023-04-17T00:43:19.563Z,4.90
2023-04-17T00:46:22.364Z,4.20
2023-04-17T00:49:25.244Z,3.85
2023-04-17T00:52:30.732Z,6.10
2023-04-17T00:55:35.131Z,3.63
2023-04-17T00:58:37.813Z,3.50
2023-04-17T01:01:39.900Z,5.30
2023-04-17T01:04:42.357Z,4.40
2023-04-17T01:07:46.096Z,3.97
2023-04-17T01:10:48.137Z,4.22
2023-04-17T01:13:50.883Z,5.43
2023-04-17T01:16:53.255Z,4.00
2023-04-17T01:19:55.819Z,4.15
2023-04-17T01:23:01.779Z,3.90
2023-04-17T01:26:06.075Z,4.55
2023-04-17T01:29:08.231Z,5.25
2023-04-17T01:32:10.829Z,4.90
2023-04-17T01:35:13.443Z,6.55
2023-04-17T01:38:15.442Z,6.03
2023-04-17T01:41:17.717Z,4.22
2023-04-17T01:44:20.862Z,4.85
2023-04-17T01:47:22.865Z,3.70
2023-04-17T01:50:24.822Z,4.22
2023-04-17T01:53:27.377Z,3.72
2023-04-17T01:56:29.328Z,5.80
2023-04-17T01:59:31.293Z,6.03
2023-04-17T02:02:33.347Z,5.65
2023-04-17T02:05:35.408Z,4.95
2023-04-17T02:08:37.439Z,5.30
2023-04-17T02:11:39.599Z,4.18
2023-04-17T02:14:41.608Z,5.35
2023-04-17T02:17:43.625Z,5.80
2023-04-17T02:20:46.003Z,5.03
2023-04-17T02:23:50.417Z,7.18
2023-04-17T02:26:52.390Z,5.18
2023-04-17T02:29:54.365Z,7.63
2023-04-17T02:32:56.792Z,5.10
2023-04-17T02:36:01.193Z,5.95
2023-04-17T02:39:11.725Z,5.53
2023-04-17T02:42:15.122Z,5.30
2023-04-17T02:45:17.083Z,4.05
2023-04-17T02:48:19.510Z,6.25
2023-04-17T02:51:21.485Z,5.90
2023-04-17T02:54:23.530Z,6.70
2023-04-17T02:57:28.011Z,5.30
2023-04-17T03:00:30.120Z,6.75
2023-04-17T03:03:32.694Z,5.75
2023-04-17T03:06:34.863Z,4.38
2023-04-17T03:12:39.646Z,4.50
2023-04-17T03:15:42.190Z,4.50
2023-04-17T03:18:44.182Z,5.22
2023-04-17T03:21:47.108Z,5.68
2023-04-17T03:24:49.361Z,4.85
2023-04-17T03:27:51.557Z,4.53
2023-04-17T03:30:56.265Z,4.43
2023-04-17T03:33:58.287Z,4.90
2023-04-17T03:37:00.332Z,5.53
2023-04-17T03:40:05.481Z,4.28
2023-04-17T03:43:07.879Z,7.38
2023-04-17T03:46:09.974Z,6.25
2023-04-17T03:49:13.705Z,4.40
2023-04-17T03:52:16.236Z,4.53
2023-04-17T03:55:20.711Z,6.15
2023-04-17T03:58:24.430Z,4.75
2023-04-17T04:01:26.788Z,4.43
2023-04-17T04:04:42.690Z,4.03
2023-04-17T04:07:49.728Z,4.72
2023-04-17T04:10:58.864Z,4.63
2023-04-17T04:14:09.494Z,4.60
2023-04-17T04:17:13.354Z,6.20
2023-04-17T04:20:15.783Z,4.93
2023-04-17T04:23:18.063Z,5.03
2023-04-17T04:29:33.983Z,4.35
2023-04-17T04:32:39.787Z,4.53
2023-04-17T04:35:42.205Z,4.13
2023-04-17T04:38:44.718Z,5.05
2023-04-17T04:41:55.320Z,4.10
2023-04-17T04:45:03.262Z,5.38
2023-04-17T04:48:07.331Z,4.63
2023-04-17T04:51:09.529Z,5.28
2023-04-17T04:54:15.213Z,4.28
2023-04-17T04:57:26.985Z,6.32
2023-04-17T05:00:33.719Z,5.15
2023-04-17T05:03:36.676Z,4.65
2023-04-17T05:06:40.472Z,5.63
2023-04-17T05:09:43.786Z,5.60
2023-04-17T05:15:49.705Z,5.70
2023-04-17T05:18:55.355Z,5.32
2023-04-17T05:22:13.382Z,5.93
2023-04-17T05:25:31.025Z,4.45
2023-04-17T05:28:34.127Z,6.53
2023-04-17T05:31:40.178Z,4.50
2023-04-17T05:34:50.915Z,4.88
2023-04-17T05:37:56.426Z,4.53
2023-04-17T05:40:58.707Z,6.10
2023-04-17T05:44:02.951Z,5.47
2023-04-17T05:47:05.004Z,5.20
2023-04-17T05:50:08.102Z,6.68
2023-04-17T05:53:10.231Z,6.53
2023-04-17T05:56:20.426Z,5.05
2023-04-17T05:59:24.952Z,4.85
2023-04-17T06:02:28.127Z,3.75
2023-04-17T06:05:30.784Z,3.25
2023-04-17T06:08:33.305Z,5.80
2023-04-17T06:11:35.422Z,4.82
2023-04-17T06:14:37.387Z,4.65
2023-04-17T06:17:42.741Z,6.30
2023-04-17T06:20:46.053Z,6.35
2023-04-17T06:23:48.306Z,5.63
2023-04-17T06:26:52.103Z,5.00
2023-04-17T06:29:54.225Z,4.80
2023-04-17T06:32:56.425Z,5.10
2023-04-17T06:36:02.012Z,6.82
2023-04-17T06:39:17.876Z,4.85
2023-04-17T06:45:38.286Z,5.35
2023-04-17T06:48:43.656Z,6.82
2023-04-17T06:51:45.708Z,5.60
2023-04-17T06:54:47.935Z,5.97
2023-04-17T06:57:49.985Z,6.38
2023-04-17T07:00:51.979Z,5.72
2023-04-17T07:03:54.293Z,6.22
2023-04-17T07:06:56.402Z,6.97
2023-04-17T07:09:58.480Z,5.80
2023-04-17T07:13:00.636Z,5.15
2023-04-17T07:16:03.911Z,5.05
2023-04-17T07:19:06.006Z,5.28
2023-04-17T07:22:08.017Z,5.95
2023-04-17T07:25:10.164Z,5.80
2023-04-17T07:28:12.302Z,4.47
2023-04-17T07:31:14.399Z,4.47
2023-04-17T07:34:16.376Z,7.45
2023-04-17T07:37:18.576Z,6.43
2023-04-17T07:40:20.591Z,5.25
2023-04-17T07:43:22.617Z,5.30
2023-04-17T07:46:24.663Z,5.07
2023-04-17T07:49:26.841Z,4.53
2023-04-17T07:52:29.080Z,5.60
2023-04-17T07:55:31.328Z,4.60
2023-04-17T07:58:33.328Z,4.88
2023-04-17T08:01:35.324Z,4.45
2023-04-17T08:04:37.465Z,6.25
2023-04-17T08:10:41.698Z,5.75
2023-04-17T08:13:43.663Z,5.63
2023-04-17T08:16:46.095Z,3.38
2023-04-17T08:19:48.236Z,4.93
2023-04-17T08:22:53.439Z,4.03
2023-04-17T08:25:55.442Z,4.18
2023-04-17T08:28:57.468Z,4.13
2023-04-17T08:32:13.332Z,3.78
2023-04-17T08:35:16.870Z,3.65
2023-04-17T08:38:18.840Z,2.85
2023-04-17T08:41:22.311Z,4.03
2023-04-17T08:44:26.754Z,3.20
2023-04-17T08:47:29.177Z,3.05
2023-04-17T08:50:32.359Z,3.05
2023-04-17T08:53:34.323Z,2.35
2023-04-17T08:59:42.419Z,2.65
2023-04-17T09:02:56.582Z,2.95
2023-04-17T09:05:58.911Z,3.05
2023-04-17T09:09:01.887Z,2.03
2023-04-17T09:12:10.263Z,2.75
2023-04-17T09:15:16.065Z,3.05
2023-04-17T09:18:28.741Z,2.45
2023-04-17T09:21:30.767Z,2.35
2023-04-17T09:24:33.944Z,2.80
2023-04-17T09:27:36.143Z,2.35
2023-04-17T09:30:38.989Z,2.97
2023-04-17T09:33:58.995Z,2.42
2023-04-17T09:37:01.668Z,2.10
2023-04-17T09:40:04.102Z,2.33
2023-04-17T09:43:09.689Z,2.92
2023-04-17T09:46:12.187Z,2.38
2023-04-17T09:49:34.232Z,3.00
2023-04-17T09:52:36.444Z,1.73
2023-04-17T09:55:41.331Z,1.45
2023-04-17T09:58:43.422Z,2.75
2023-04-17T10:01:46.171Z,2.78
2023-04-17T10:04:48.445Z,3.22
2023-04-17T10:07:50.796Z,2.15
2023-04-17T10:10:53.286Z,2.38
2023-04-17T10:14:19.785Z,1.55
2023-04-17T10:17:30.577Z,1.75
2023-04-17T10:20:34.059Z,1.55
2023-04-17T10:23:39.366Z,2.42
2023-04-17T10:26:41.504Z,1.63
2023-04-17T10:29:54.444Z,1.80
2023-04-17T10:33:14.744Z,1.38
2023-04-17T10:36:38.502Z,2.30
2023-04-17T10:39:59.532Z,1.70
2023-04-17T10:43:04.842Z,1.63
2023-04-17T10:46:13.687Z,1.15
2023-04-17T10:49:16.631Z,1.50
2023-04-17T11:03:23.834Z,1.67
2023-04-17T11:06:28.032Z,1.58
2023-04-17T11:09:30.251Z,1.15
2023-04-17T11:12:32.615Z,1.77
2023-04-17T11:18:38.418Z,1.30
2023-04-17T11:21:43.233Z,1.05
2023-04-17T11:24:45.190Z,1.58
2023-04-17T11:27:47.307Z,1.65
2023-04-17T11:30:49.586Z,1.23
2023-04-17T11:33:51.852Z,1.67
2023-04-17T11:36:55.939Z,1.77
2023-04-17T11:40:03.190Z,1.60
2023-04-17T11:43:08.826Z,1.48
2023-04-17T11:46:10.917Z,1.33
2023-04-17T11:49:13.184Z,2.53
2023-04-17T11:55:20.034Z,1.73
2023-04-17T11:58:21.976Z,2.17
2023-04-17T12:01:28.476Z,1.00
2023-04-17T12:04:31.362Z,1.48
2023-04-17T12:07:33.369Z,1.35
2023-04-17T12:10:43.765Z,1.48
2023-04-17T12:13:45.765Z,1.25
2023-04-17T12:16:48.108Z,1.38
2023-04-17T12:22:52.121Z,1.50
2023-04-17T12:25:54.193Z,2.55
2023-04-17T12:28:57.209Z,1.70
2023-04-17T12:31:59.290Z,2.03
2023-04-17T12:35:01.375Z,1.88
2023-04-17T12:38:03.317Z,1.67
2023-04-17T12:44:07.694Z,2.25
2023-04-17T12:47:12.334Z,1.50
2023-04-17T12:50:14.429Z,1.40
2023-04-17T12:53:17.294Z,1.60
2023-04-17T12:56:22.210Z,2.00
2023-04-17T12:59:24.237Z,1.42
2023-04-17T13:02:26.420Z,1.13
2023-04-17T13:05:29.407Z,2.25
2023-04-17T13:08:31.421Z,2.35
2023-04-17T13:11:33.477Z,3.00
2023-04-17T13:14:35.665Z,2.13
2023-04-17T13:17:37.749Z,2.30
2023-04-17T13:20:39.951Z,1.73
2023-04-17T13:23:41.993Z,2.10
2023-04-17T13:26:44.856Z,2.13
2023-04-17T13:29:47.763Z,2.00
2023-04-17T13:32:49.769Z,1.27
2023-04-17T13:35:51.893Z,1.63
2023-04-17T13:38:53.852Z,1.63
2023-04-17T13:41:55.895Z,2.00
2023-04-17T13:44:57.880Z,1.40
2023-04-17T13:48:00.502Z,1.00
2023-04-17T13:51:02.592Z,1.52
2023-04-17T13:54:04.820Z,1.73
2023-04-17T13:57:07.305Z,1.42
2023-04-17T14:03:11.946Z,1.70
2023-04-17T14:06:14.309Z,1.40
2023-04-17T14:09:17.126Z,1.98
2023-04-17T14:12:19.055Z,1.67
2023-04-17T14:15:21.116Z,1.20
2023-04-17T14:18:23.478Z,1.73
2023-04-17T14:21:25.491Z,1.52
2023-04-17T14:24:27.522Z,1.23
2023-04-17T14:27:29.598Z,0.90
2023-04-17T14:30:31.638Z,1.33
2023-04-17T14:33:33.723Z,1.10
2023-04-17T14:36:37.046Z,1.33
2023-04-17T14:39:39.174Z,1.33
2023-04-17T14:42:53.658Z,1.25
2023-04-17T14:45:57.103Z,1.25
2023-04-17T14:48:59.145Z,0.82
2023-04-17T14:52:03.551Z,1.48
2023-04-17T14:55:06.034Z,1.95
2023-04-17T14:58:08.113Z,1.73
2023-04-17T15:01:10.362Z,1.00
2023-04-17T15:07:14.683Z,1.10
2023-04-17T15:10:17.008Z,1.27
2023-04-17T15:13:19.036Z,1.33
2023-04-17T15:16:21.077Z,1.30
2023-04-17T15:19:23.132Z,1.45
2023-04-17T15:22:26.172Z,1.23
2023-04-17T15:25:28.251Z,1.38
2023-04-17T15:28:30.248Z,1.15
2023-04-17T15:31:32.494Z,1.30
2023-04-17T15:34:35.880Z,1.08
2023-04-17T15:37:42.648Z,1.40
2023-04-17T15:40:44.601Z,0.88
2023-04-17T15:43:46.598Z,0.70
2023-04-17T15:46:48.570Z,1.50
2023-04-17T15:49:50.660Z,0.90
2023-04-17T15:52:52.649Z,1.20
2023-04-17T15:55:54.682Z,0.90
2023-04-17T15:58:56.995Z,1.05
2023-04-17T16:05:01.511Z,0.70
2023-04-17T16:08:06.038Z,1.60
2023-04-17T16:11:08.010Z,0.90
2023-04-17T16:14:10.059Z,1.15
2023-04-17T16:17:12.144Z,0.75
2023-04-17T16:20:14.736Z,0.70
2023-04-17T16:23:19.621Z,0.60
2023-04-17T16:26:22.507Z,1.25
2023-04-17T16:29:25.559Z,1.08
2023-04-17T16:32:27.996Z,0.90
2023-04-17T16:38:32.006Z,1.10
2023-04-17T16:41:34.491Z,1.08
2023-04-17T16:44:37.588Z,0.70
2023-04-17T16:47:39.847Z,0.63
2023-04-17T16:50:42.102Z,1.00
2023-04-17T16:53:44.102Z,1.17
2023-04-17T16:56:46.925Z,1.17
2023-04-17T16:59:48.957Z,1.42
2023-04-17T17:02:51.058Z,1.02
2023-04-17T17:05:53.188Z,1.08
2023-04-17T17:08:55.472Z,0.90
2023-04-17T17:11:58.180Z,1.10
2023-04-17T17:18:02.197Z,1.08
2023-04-17T17:21:04.348Z,1.17
2023-04-17T17:24:06.922Z,0.77
2023-04-17T17:27:08.856Z,1.13
2023-04-17T17:30:11.263Z,0.80
2023-04-17T17:36:18.863Z,0.90
2023-04-17T17:39:20.905Z,0.73
2023-04-17T17:42:22.804Z,0.77
2023-04-17T17:45:24.795Z,0.82
2023-04-17T17:48:26.723Z,0.90
2023-04-17T17:51:28.782Z,0.60
2023-04-17T17:54:34.661Z,0.60
2023-04-17T17:57:46.120Z,0.65
2023-04-17T18:00:51.206Z,1.05
2023-04-17T18:03:53.785Z,1.00
2023-04-17T18:06:55.956Z,1.00
2023-04-17T18:09:58.158Z,1.10
2023-04-17T18:13:00.106Z,1.27
2023-04-17T18:16:05.594Z,0.90
2023-04-17T18:19:07.629Z,1.00
2023-04-17T18:22:09.711Z,1.20
2023-04-17T18:25:11.890Z,0.80
2023-04-17T18:28:14.382Z,1.55
2023-04-17T18:34:19.028Z,0.80
2023-04-17T18:37:20.996Z,1.10
2023-04-17T18:40:22.926Z,0.73
2023-04-17T18:43:28.176Z,1.00
2023-04-17T18:46:30.255Z,0.93
2023-04-17T18:49:32.259Z,0.70
2023-04-17T18:52:40.394Z,0.70
2023-04-17T18:55:43.353Z,1.10
2023-04-17T18:58:45.397Z,0.80
2023-04-17T19:01:48.292Z,0.32
2023-04-17T19:04:50.360Z,1.35
2023-04-17T19:07:52.317Z,1.48
2023-04-17T19:10:54.339Z,0.38
2023-04-17T19:13:56.482Z,0.85
2023-04-17T19:16:59.029Z,0.55
2023-04-17T19:23:02.958Z,1.00
2023-04-17T19:26:04.947Z,0.63
2023-04-17T19:29:09.469Z,0.50
2023-04-17T19:32:11.561Z,0.90
2023-04-17T19:35:13.661Z,1.52
2023-04-17T19:38:17.263Z,0.93
2023-04-17T19:41:21.746Z,1.48
2023-04-17T19:44:24.410Z,0.95
2023-04-17T19:47:28.367Z,0.93
2023-04-17T19:50:30.525Z,1.33
2023-04-17T19:53:35.024Z,1.50
2023-04-17T19:56:39.232Z,1.52
2023-04-17T19:59:41.290Z,1.20
2023-04-17T20:02:43.705Z,1.00
2023-04-17T20:08:47.704Z,1.30
2023-04-17T20:11:49.713Z,1.58
2023-04-17T20:14:51.835Z,1.67
2023-04-17T20:17:53.891Z,1.35
2023-04-17T20:20:56.139Z,1.63
2023-04-17T20:23:58.114Z,1.33
2023-04-17T20:27:01.841Z,1.70
2023-04-17T20:30:04.244Z,1.05
2023-04-17T20:33:06.283Z,1.27
2023-04-17T20:36:08.466Z,1.95
2023-04-17T20:39:10.856Z,0.82
2023-04-17T20:42:13.114Z,1.45
2023-04-17T20:45:15.392Z,1.83
2023-04-17T20:51:21.565Z,1.65
2023-04-17T20:54:23.779Z,1.42
2023-04-17T20:57:25.949Z,1.40
2023-04-17T21:00:28.412Z,1.05
2023-04-17T21:03:31.414Z,0.93
2023-04-17T21:06:33.670Z,1.77
2023-04-17T21:09:35.704Z,1.77
2023-04-17T21:12:37.896Z,1.13
2023-04-17T21:15:42.288Z,1.70
2023-04-17T21:18:45.596Z,2.95
2023-04-17T21:21:48.027Z,1.40
2023-04-17T21:24:49.960Z,1.30
2023-04-17T21:27:52.054Z,1.73
2023-04-17T21:30:54.107Z,1.67
2023-04-17T21:33:56.116Z,1.83
2023-04-17T21:37:00.018Z,1.63
2023-04-17T21:40:02.381Z,2.28
2023-04-17T21:43:04.630Z,1.80
2023-04-17T21:46:10.734Z,1.25
2023-04-17T21:49:12.816Z,1.92
2023-04-17T21:52:16.621Z,1.40
2023-04-17T21:55:18.686Z,2.22
2023-04-17T21:58:20.776Z,2.17
2023-04-17T22:01:23.125Z,1.50
2023-04-17T22:04:26.697Z,1.63
2023-04-17T22:07:28.713Z,2.58
2023-04-17T22:10:30.705Z,2.30
2023-04-17T22:13:32.768Z,1.83
2023-04-17T22:16:34.895Z,2.38
2023-04-17T22:19:37.945Z,1.77
2023-04-17T22:22:40.072Z,1.90
2023-04-17T22:25:42.034Z,1.83
2023-04-17T22:28:44.092Z,2.40
2023-04-17T22:31:49.406Z,1.92
2023-04-17T22:34:51.769Z,2.53
2023-04-17T22:37:54.755Z,1.92
2023-04-17T22:40:56.840Z,2.05
2023-04-17T22:43:58.864Z,2.40
2023-04-17T22:47:00.824Z,2.00
2023-04-17T22:50:02.850Z,2.00
2023-04-17T22:53:05.263Z,2.22
2023-04-17T22:56:11.134Z,2.20
2023-04-17T22:59:13.222Z,2.80
2023-04-17T23:02:15.394Z,2.75
2023-04-17T23:05:19.114Z,2.22
2023-04-17T23:08:21.964Z,3.00
2023-04-17T23:11:24.047Z,4.43
2023-04-17T23:14:26.333Z,2.22
2023-04-17T23:17:28.450Z,2.42
2023-04-17T23:20:30.558Z,2.50
2023-04-17T23:23:32.698Z,2.80
2023-04-17T23:26:34.813Z,2.63
2023-04-17T23:29:38.622Z,2.50
2023-04-17T23:32:40.770Z,2.78
2023-04-17T23:35:43.227Z,2.58
2023-04-17T23:38:45.408Z,2.83
2023-04-17T23:41:47.468Z,2.72
2023-04-17T23:44:50.312Z,2.55
2023-04-17T23:47:52.553Z,2.45
2023-04-17T23:50:54.989Z,2.55
2023-04-17T23:53:59.497Z,2.85
2023-04-17T23:57:01.857Z,2.53
